Cypress Mill, Texas
Current Conditions -  °F | °C
As of 5:55 PM on Saturday 25 Oct 2014 (Local Time) from KDZB Reporting Station
Clear Clear  
Wind Chill: 85°   Ceiling: Unl
Heat Index: 85°   Visibility: 10mi
Dew Point: 54°   Wind: 3mph
Humidity: 34%   Direction: 160°SSE
Pressure: 30.09"   Gusts: NA
Location:  30.3215°N, 98.3242°W
Report Text: KDZB 252255Z AUTO 16003KT 10SM CLR 30/12 A3009 RMK AO2 T02950123
Loading
Personal Weather Stations






























Interactive Weather Map
Tropical Storm Tracking
New forecast layout! Learn more

10-Day Weather Forecast

Advertisements
Track Severe Weather on mobile